Time;durP1;ratioP1;P1;durP2;ratioP2;P2;SDS_P1;SDS_P2;PMS_P1;PMS_P2;Temp;Humidity;BMP_temperature;BMP_pressure;BME280_temperature;BME280_humidity;BME280_pressure;Samples;Min_cycle;Max_cycle;Signal;HPM_P1;HPM_P2
2024/01/21 00:00:42;;;;;;;13.53;10.40;;;;;;;;;;4994875;28;20789;-84
2024/01/21 00:03:09;;;;;;;15.37;9.43;;;;;;;;;;4995736;28;20208;-84
2024/01/21 00:05:38;;;;;;;16.20;11.40;;;;;;;;;;4995529;28;20706;-84
2024/01/21 00:08:06;;;;;;;10.23;8.93;;;;;;;;;;4995720;28;20200;-83
2024/01/21 00:10:35;;;;;;;17.63;10.70;;;;;;;;;;4995442;28;20270;-84
2024/01/21 00:13:02;;;;;;;17.63;11.17;;;;;;;;;;4995477;28;20210;-83
2024/01/21 00:15:30;;;;;;;17.67;12.30;;;;;;;;;;4995047;28;20287;-84
2024/01/21 00:17:57;;;;;;;15.13;9.87;;;;;;;;;;4995794;28;20211;-85
2024/01/21 00:20:24;;;;;;;13.47;10.30;;;;;;;;;;4989382;28;20726;-85
2024/01/21 00:22:53;;;;;;;16.00;11.27;;;;;;;;;;5015342;28;20643;-85
2024/01/21 00:25:21;;;;;;;25.03;11.20;;;;;;;;;;5014623;28;20234;-84
2024/01/21 00:27:49;;;;;;;14.30;11.63;;;;;;;;;;5016530;28;20294;-84
2024/01/21 00:30:16;;;;;;;15.67;9.53;;;;;;;;;;5015469;28;20790;-84
2024/01/21 00:32:43;;;;;;;21.00;12.43;;;;;;;;;;5016614;28;20210;-84
2024/01/21 00:35:11;;;;;;;18.53;11.30;;;;;;;;;;5014777;28;20242;-83
2024/01/21 00:37:39;;;;;;;18.87;12.33;;;;;;;;;;5015514;28;20195;-84
2024/01/21 00:40:09;;;;;;;16.10;14.50;;;;;;;;;;5013929;28;20203;-83
2024/01/21 00:42:36;;;;;;;22.00;12.93;;;;;;;;;;5015597;28;20219;-84
2024/01/21 00:45:07;;;;;;;13.93;11.00;;;;;;;;;;5014766;28;20689;-84
2024/01/21 00:47:34;;;;;;;20.20;12.70;;;;;;;;;;5015140;28;20203;-84
2024/01/21 00:50:05;;;;;;;15.17;12.47;;;;;;;;;;5015332;28;20294;-84
2024/01/21 00:52:32;;;;;;;17.63;13.33;;;;;;;;;;5014172;28;20227;-84
2024/01/21 00:55:02;;;;;;;20.10;12.47;;;;;;;;;;5015152;28;20250;-84
2024/01/21 00:57:31;;;;;;;14.60;13.10;;;;;;;;;;5012574;28;20237;-84
2024/01/21 01:00:03;;;;;;;18.73;12.03;;;;;;;;;;5014754;28;20291;-83
2024/01/21 01:02:30;;;;;;;17.53;12.93;;;;;;;;;;5013461;28;20219;-84
2024/01/21 01:04:57;;;;;;;17.93;11.60;;;;;;;;;;5014245;28;20258;-84
2024/01/21 01:07:25;;;;;;;26.97;13.53;;;;;;;;;;5013583;28;20235;-84
2024/01/21 01:09:52;;;;;;;27.50;14.73;;;;;;;;;;5014083;28;20558;-83
2024/01/21 01:12:19;;;;;;;20.50;11.77;;;;;;;;;;5013491;28;20227;-84
2024/01/21 01:14:47;;;;;;;19.73;11.73;;;;;;;;;;5014115;28;20207;-84
2024/01/21 01:17:14;;;;;;;18.53;11.67;;;;;;;;;;5013415;28;20622;-83
2024/01/21 01:19:41;;;;;;;32.40;16.50;;;;;;;;;;5013863;28;20219;-84
2024/01/21 01:22:09;;;;;;;31.20;15.00;;;;;;;;;;5013161;28;20235;-84
2024/01/21 01:24:36;;;;;;;25.17;11.80;;;;;;;;;;5009343;28;20231;-84
2024/01/21 01:27:04;;;;;;;24.70;15.03;;;;;;;;;;5013583;28;20246;-84
2024/01/21 01:29:31;;;;;;;26.20;15.90;;;;;;;;;;5013526;28;20734;-83
2024/01/21 01:31:59;;;;;;;26.87;14.27;;;;;;;;;;5013172;28;20246;-84
2024/01/21 01:34:26;;;;;;;21.83;13.23;;;;;;;;;;5018930;28;20574;-84
2024/01/21 01:36:53;;;;;;;24.13;14.20;;;;;;;;;;5013183;28;20233;-84
2024/01/21 01:39:20;;;;;;;23.87;14.53;;;;;;;;;;5013262;28;20199;-84
2024/01/21 01:41:47;;;;;;;22.13;13.37;;;;;;;;;;5012554;28;20239;-83
2024/01/21 01:44:14;;;;;;;27.87;12.93;;;;;;;;;;5013112;28;20218;-83
2024/01/21 01:46:41;;;;;;;21.97;14.17;;;;;;;;;;5013108;28;20253;-83
2024/01/21 01:49:10;;;;;;;27.23;15.27;;;;;;;;;;5013294;28;20569;-84
2024/01/21 01:51:38;;;;;;;22.53;13.70;;;;;;;;;;5012871;28;20219;-84
2024/01/21 01:54:05;;;;;;;26.07;14.47;;;;;;;;;;5014173;28;20218;-84
2024/01/21 01:56:32;;;;;;;28.17;15.47;;;;;;;;;;5012892;28;20235;-84
2024/01/21 01:59:01;;;;;;;23.60;14.07;;;;;;;;;;5013122;28;20203;-84
2024/01/21 02:01:29;;;;;;;29.37;15.87;;;;;;;;;;5012328;28;20235;-83
2024/01/21 02:03:56;;;;;;;23.03;13.40;;;;;;;;;;5013384;28;20345;-84
2024/01/21 02:06:25;;;;;;;24.40;14.37;;;;;;;;;;5012689;28;20233;-84
2024/01/21 02:08:52;;;;;;;24.77;15.10;;;;;;;;;;5010791;28;20560;-83
2024/01/21 02:11:19;;;;;;;23.73;14.07;;;;;;;;;;5012240;28;20241;-84
2024/01/21 02:13:46;;;;;;;17.10;12.47;;;;;;;;;;5012844;28;20199;-83
2024/01/21 02:16:13;;;;;;;24.77;14.33;;;;;;;;;;5012421;28;20238;-84
2024/01/21 02:18:42;;;;;;;24.57;15.30;;;;;;;;;;5012410;28;20220;-84
2024/01/21 02:21:09;;;;;;;18.30;11.83;;;;;;;;;;5012232;28;20729;-84
2024/01/21 02:23:37;;;;;;;24.43;12.53;;;;;;;;;;5012885;28;20242;-84
2024/01/21 02:26:04;;;;;;;15.70;12.97;;;;;;;;;;5012543;28;20238;-83
2024/01/21 02:28:31;;;;;;;22.90;12.57;;;;;;;;;;5007144;28;20234;-83
2024/01/21 02:30:59;;;;;;;26.90;14.83;;;;;;;;;;5011933;28;20292;-84
2024/01/21 02:33:26;;;;;;;21.07;13.03;;;;;;;;;;5012882;28;20622;-83
2024/01/21 02:35:53;;;;;;;22.80;13.97;;;;;;;;;;5012224;28;20665;-84
2024/01/21 02:38:20;;;;;;;22.17;12.13;;;;;;;;;;5012309;28;20232;-84
2024/01/21 02:40:49;;;;;;;19.07;12.00;;;;;;;;;;5011722;28;20787;-84
2024/01/21 02:43:16;;;;;;;18.60;12.07;;;;;;;;;;5012455;28;20684;-83
2024/01/21 02:45:43;;;;;;;16.43;12.30;;;;;;;;;;5012222;28;20237;-84
2024/01/21 02:48:10;;;;;;;20.37;13.77;;;;;;;;;;5012146;28;20565;-84
2024/01/21 02:50:37;;;;;;;20.93;12.37;;;;;;;;;;5011711;28;20689;-84
2024/01/21 02:53:04;;;;;;;18.13;12.83;;;;;;;;;;5012250;28;20285;-84
2024/01/21 02:55:31;;;;;;;27.77;14.27;;;;;;;;;;5015706;28;20226;-83
2024/01/21 02:58:00;;;;;;;19.23;12.97;;;;;;;;;;5016064;28;20575;-83
2024/01/21 03:00:27;;;;;;;19.43;14.07;;;;;;;;;;5016074;28;20237;-83
2024/01/21 03:02:54;;;;;;;21.03;11.80;;;;;;;;;;5016299;28;20705;-83
2024/01/21 03:05:21;;;;;;;12.73;10.47;;;;;;;;;;5015923;28;20211;-83
2024/01/21 03:07:48;;;;;;;20.60;11.87;;;;;;;;;;5015825;28;20211;-83
2024/01/21 03:10:15;;;;;;;22.87;13.40;;;;;;;;;;5016095;28;20235;-83
2024/01/21 03:12:42;;;;;;;19.43;10.37;;;;;;;;;;5016117;28;20210;-84
2024/01/21 03:15:10;;;;;;;15.63;11.10;;;;;;;;;;5015683;28;20202;-83
2024/01/21 03:17:38;;;;;;;16.97;10.00;;;;;;;;;;5016099;28;20652;-83
2024/01/21 03:20:05;;;;;;;14.43;10.67;;;;;;;;;;5015453;28;20203;-83
2024/01/21 03:22:32;;;;;;;14.13;11.87;;;;;;;;;;5015700;28;20635;-83
2024/01/21 03:24:59;;;;;;;18.43;12.77;;;;;;;;;;5015978;28;20214;-83
2024/01/21 03:27:26;;;;;;;21.87;11.70;;;;;;;;;;5014961;28;20722;-83
2024/01/21 03:29:55;;;;;;;18.07;11.53;;;;;;;;;;5011221;28;20280;-83
2024/01/21 03:32:23;;;;;;;21.50;10.37;;;;;;;;;;5015236;28;20726;-83
2024/01/21 03:34:51;;;;;;;12.00;10.17;;;;;;;;;;5015906;28;20213;-83
2024/01/21 03:37:19;;;;;;;14.97;12.90;;;;;;;;;;5015150;28;20332;-83
2024/01/21 03:39:46;;;;;;;14.97;11.03;;;;;;;;;;5015784;28;20207;-83
2024/01/21 03:42:13;;;;;;;17.97;11.13;;;;;;;;;;5014724;28;20227;-83
2024/01/21 03:44:40;;;;;;;16.03;10.53;;;;;;;;;;5015575;28;20263;-83
2024/01/21 03:47:07;;;;;;;14.13;10.33;;;;;;;;;;5015107;28;20242;-83
2024/01/21 03:49:36;;;;;;;16.97;11.27;;;;;;;;;;5015453;28;20213;-83
2024/01/21 03:52:03;;;;;;;13.00;9.73;;;;;;;;;;5015152;28;20608;-82
2024/01/21 03:54:30;;;;;;;17.23;11.27;;;;;;;;;;5015981;28;20239;-83
2024/01/21 03:56:57;;;;;;;25.87;13.73;;;;;;;;;;5015254;28;20748;-82
2024/01/21 03:59:24;;;;;;;20.93;11.37;;;;;;;;;;5015243;28;20212;-83
2024/01/21 04:01:51;;;;;;;16.60;11.30;;;;;;;;;;5014681;28;20241;-83
2024/01/21 04:04:18;;;;;;;21.63;11.70;;;;;;;;;;5015046;28;20702;-83
2024/01/21 04:06:46;;;;;;;21.10;12.63;;;;;;;;;;4993586;28;20249;-83
2024/01/21 04:09:15;;;;;;;19.07;11.60;;;;;;;;;;4994902;28;20216;-83
2024/01/21 04:11:42;;;;;;;21.73;11.33;;;;;;;;;;4995030;28;20263;-83
2024/01/21 04:14:09;;;;;;;17.37;11.47;;;;;;;;;;5009683;28;20292;-83
2024/01/21 04:16:36;;;;;;;25.90;14.27;;;;;;;;;;5014122;28;20246;-83
2024/01/21 04:19:03;;;;;;;15.53;11.93;;;;;;;;;;5014908;28;20613;-83
2024/01/21 04:21:32;;;;;;;16.40;11.30;;;;;;;;;;5014329;28;20609;-83
2024/01/21 04:24:01;;;;;;;18.03;11.80;;;;;;;;;;5014631;28;20204;-83
2024/01/21 04:26:28;;;;;;;18.57;11.73;;;;;;;;;;5014257;28;20239;-83
2024/01/21 04:28:55;;;;;;;14.93;10.87;;;;;;;;;;5014662;28;20220;-83
2024/01/21 04:31:22;;;;;;;24.00;12.03;;;;;;;;;;5012046;28;20336;-82
2024/01/21 04:33:49;;;;;;;15.77;9.27;;;;;;;;;;5013294;28;20200;-82
2024/01/21 04:36:17;;;;;;;15.83;11.80;;;;;;;;;;5014227;28;20236;-83
2024/01/21 04:38:44;;;;;;;19.13;12.73;;;;;;;;;;5014463;28;20556;-83
2024/01/21 04:41:13;;;;;;;15.87;10.73;;;;;;;;;;5013830;28;20244;-83
2024/01/21 04:43:40;;;;;;;18.37;11.83;;;;;;;;;;5014335;28;20618;-83
2024/01/21 04:46:07;;;;;;;22.07;13.07;;;;;;;;;;5013841;28;20240;-83
2024/01/21 04:48:34;;;;;;;24.07;11.87;;;;;;;;;;5013951;28;20218;-83
2024/01/21 04:51:01;;;;;;;19.43;13.07;;;;;;;;;;5013887;28;20239;-84
2024/01/21 04:53:28;;;;;;;18.30;12.27;;;;;;;;;;5014401;28;20208;-83
2024/01/21 04:55:55;;;;;;;18.83;11.33;;;;;;;;;;5014898;28;20261;-83
2024/01/21 04:58:24;;;;;;;15.33;10.53;;;;;;;;;;5014852;28;20217;-82
2024/01/21 05:00:51;;;;;;;21.73;13.03;;;;;;;;;;5013934;28;20247;-83
2024/01/21 05:03:18;;;;;;;17.20;11.10;;;;;;;;;;5014208;28;20232;-83
2024/01/21 05:05:45;;;;;;;23.63;11.17;;;;;;;;;;5013744;28;20246;-83
2024/01/21 05:08:12;;;;;;;23.27;12.33;;;;;;;;;;5013683;28;20235;-83
2024/01/21 05:10:39;;;;;;;20.57;10.63;;;;;;;;;;5013231;28;20641;-83
2024/01/21 05:13:06;;;;;;;21.13;11.70;;;;;;;;;;5014159;28;20210;-83
2024/01/21 05:15:35;;;;;;;14.40;5.63;;;;;;;;;;5013579;28;20294;-83
2024/01/21 05:18:02;;;;;;;35.70;15.97;;;;;;;;;;5013187;28;20221;-83
2024/01/21 05:20:29;;;;;;;25.30;11.47;;;;;;;;;;5013138;28;20603;-83
2024/01/21 05:22:56;;;;;;;37.17;15.10;;;;;;;;;;5013515;28;20239;-83
2024/01/21 05:25:23;;;;;;;33.30;15.17;;;;;;;;;;5013223;28;20243;-83
2024/01/21 05:27:50;;;;;;;31.50;13.27;;;;;;;;;;5013441;28;20217;-83
2024/01/21 05:30:17;;;;;;;26.30;12.77;;;;;;;;;;5012980;28;20228;-83
2024/01/21 05:32:50;;;;;;;29.47;15.03;;;;;;;;;;5013514;28;20585;-83
2024/01/21 05:35:17;;;;;;;26.40;13.77;;;;;;;;;;5012920;28;20606;-82
2024/01/21 05:37:44;;;;;;;12.63;7.83;;;;;;;;;;5013293;28;20218;-83
2024/01/21 05:40:11;;;;;;;27.80;12.70;;;;;;;;;;5012953;28;20606;-83
2024/01/21 05:42:38;;;;;;;23.83;11.97;;;;;;;;;;5013140;28;20882;-83
2024/01/21 05:45:06;;;;;;;31.43;14.90;;;;;;;;;;5012932;28;20215;-83
2024/01/21 05:47:33;;;;;;;20.07;11.23;;;;;;;;;;5013073;28;20218;-83
2024/01/21 05:50:01;;;;;;;24.00;10.60;;;;;;;;;;5013487;28;20213;-83
2024/01/21 05:52:28;;;;;;;29.50;12.43;;;;;;;;;;5013202;28;20225;-83
2024/01/21 05:54:56;;;;;;;28.70;13.70;;;;;;;;;;5008562;28;20236;-83
2024/01/21 05:57:23;;;;;;;21.17;10.00;;;;;;;;;;5013079;28;20715;-83
2024/01/21 05:59:50;;;;;;;22.13;11.50;;;;;;;;;;5012899;28;20264;-83
2024/01/21 06:02:18;;;;;;;19.40;11.10;;;;;;;;;;5012135;28;20236;-83
2024/01/21 06:04:45;;;;;;;6.67;5.90;;;;;;;;;;5012652;28;20209;-83
2024/01/21 06:07:13;;;;;;;16.27;9.27;;;;;;;;;;5012226;28;20233;-83
2024/01/21 06:09:40;;;;;;;18.33;8.07;;;;;;;;;;5012280;28;20206;-83
2024/01/21 06:12:08;;;;;;;15.43;11.50;;;;;;;;;;5012161;28;20231;-83
2024/01/21 06:14:35;;;;;;;28.03;12.57;;;;;;;;;;5012850;28;20209;-83
2024/01/21 06:17:02;;;;;;;23.60;12.77;;;;;;;;;;5012257;28;20235;-84
2024/01/21 06:19:30;;;;;;;28.80;13.57;;;;;;;;;;5012260;28;20692;-83
2024/01/21 06:21:57;;;;;;;29.87;12.17;;;;;;;;;;5011829;28;20240;-84
2024/01/21 06:24:25;;;;;;;26.80;12.70;;;;;;;;;;5012582;28;20279;-83
2024/01/21 06:26:53;;;;;;;23.00;13.03;;;;;;;;;;5012734;28;20238;-83
2024/01/21 06:29:20;;;;;;;24.90;13.67;;;;;;;;;;5012079;28;20205;-83
2024/01/21 06:31:47;;;;;;;23.87;11.93;;;;;;;;;;5012259;28;20254;-83
2024/01/21 06:34:14;;;;;;;26.97;12.87;;;;;;;;;;5013160;28;20213;-83
2024/01/21 06:36:41;;;;;;;26.87;12.80;;;;;;;;;;5012402;28;20868;-83
2024/01/21 06:39:08;;;;;;;29.43;13.00;;;;;;;;;;5013011;28;20213;-83
2024/01/21 06:41:36;;;;;;;25.33;12.67;;;;;;;;;;5012580;28;20245;-84
2024/01/21 06:44:03;;;;;;;30.53;13.67;;;;;;;;;;5012432;28;20231;-83
2024/01/21 06:46:30;;;;;;;20.90;12.13;;;;;;;;;;5012007;28;20246;-83
2024/01/21 06:48:57;;;;;;;19.17;12.40;;;;;;;;;;5019467;28;20212;-83
2024/01/21 06:51:31;;;;;;;29.83;12.07;;;;;;;;;;5019163;28;20241;-83
2024/01/21 06:53:59;;;;;;;20.70;11.87;;;;;;;;;;5014365;28;20280;-83
2024/01/21 06:56:27;;;;;;;33.53;14.33;;;;;;;;;;5012947;28;20685;-83
2024/01/21 06:58:55;;;;;;;22.00;14.80;;;;;;;;;;5008755;28;20236;-84
2024/01/21 07:01:22;;;;;;;17.50;11.93;;;;;;;;;;5012527;28;20315;-83
2024/01/21 07:03:49;;;;;;;19.53;10.27;;;;;;;;;;5012316;28;20231;-83
2024/01/21 07:06:16;;;;;;;20.10;13.17;;;;;;;;;;5011273;28;20724;-82
2024/01/21 07:08:43;;;;;;;20.70;10.33;;;;;;;;;;5012145;28;20185;-81
2024/01/21 07:11:10;;;;;;;19.70;11.77;;;;;;;;;;5011332;28;20235;-82
2024/01/21 07:13:37;;;;;;;24.63;11.63;;;;;;;;;;5011862;28;20208;-81
2024/01/21 07:16:06;;;;;;;18.27;10.73;;;;;;;;;;5011560;28;20239;-81
2024/01/21 07:18:33;;;;;;;17.53;10.77;;;;;;;;;;5011612;28;20197;-81
2024/01/21 07:21:00;;;;;;;27.50;13.23;;;;;;;;;;5011496;28;20286;-81
2024/01/21 07:23:27;;;;;;;20.30;11.17;;;;;;;;;;5011667;28;20276;-81
2024/01/21 07:25:54;;;;;;;18.13;12.03;;;;;;;;;;5011322;28;20245;-81
2024/01/21 07:28:21;;;;;;;19.63;10.83;;;;;;;;;;5011630;28;20214;-81
2024/01/21 07:30:48;;;;;;;22.93;11.13;;;;;;;;;;5011331;28;20267;-81
2024/01/21 07:33:17;;;;;;;27.00;12.07;;;;;;;;;;5011638;28;20199;-81
2024/01/21 07:35:45;;;;;;;23.50;12.13;;;;;;;;;;5011237;28;20240;-81
2024/01/21 07:38:12;;;;;;;24.37;11.73;;;;;;;;;;5011556;28;20202;-81
2024/01/21 07:40:39;;;;;;;21.30;12.20;;;;;;;;;;5013231;28;20247;-81
2024/01/21 07:43:07;;;;;;;30.07;13.47;;;;;;;;;;5015279;28;20238;-81
2024/01/21 07:45:34;;;;;;;22.07;13.03;;;;;;;;;;5014757;28;20699;-81
2024/01/21 07:48:01;;;;;;;19.90;11.73;;;;;;;;;;5015008;28;20208;-81
2024/01/21 07:50:30;;;;;;;28.93;12.63;;;;;;;;;;5014378;28;20242;-81
2024/01/21 07:52:57;;;;;;;20.77;10.90;;;;;;;;;;5015031;28;20207;-81
2024/01/21 07:55:24;;;;;;;18.30;11.40;;;;;;;;;;5014624;28;20699;-82
2024/01/21 07:57:51;;;;;;;20.60;11.40;;;;;;;;;;5015055;28;20208;-82
2024/01/21 08:00:18;;;;;;;24.93;11.80;;;;;;;;;;5014730;28;20669;-81
2024/01/21 08:02:45;;;;;;;21.63;10.83;;;;;;;;;;5014896;28;20275;-82
2024/01/21 08:05:12;;;;;;;13.87;10.53;;;;;;;;;;5014739;28;20675;-82
2024/01/21 08:07:40;;;;;;;20.60;12.90;;;;;;;;;;5014760;28;20218;-81
2024/01/21 08:10:09;;;;;;;16.60;10.10;;;;;;;;;;5014620;28;20221;-81
2024/01/21 08:12:36;;;;;;;22.17;10.63;;;;;;;;;;5014634;28;20218;-81
2024/01/21 08:15:03;;;;;;;17.40;11.97;;;;;;;;;;5014192;28;20207;-80
2024/01/21 08:17:30;;;;;;;21.40;12.43;;;;;;;;;;5014694;28;20206;-81
2024/01/21 08:19:57;;;;;;;27.57;12.27;;;;;;;;;;4995165;28;20206;-81
2024/01/21 08:22:24;;;;;;;17.43;10.47;;;;;;;;;;4994370;28;20247;-81
2024/01/21 08:24:54;;;;;;;7.37;4.90;;;;;;;;;;4994864;28;20208;-80
2024/01/21 08:27:22;;;;;;;17.37;11.33;;;;;;;;;;4994448;28;20242;-81
2024/01/21 08:29:49;;;;;;;20.13;11.27;;;;;;;;;;4994658;28;20632;-81
2024/01/21 08:32:16;;;;;;;17.50;11.53;;;;;;;;;;4994257;28;20671;-81
2024/01/21 08:34:44;;;;;;;20.10;11.30;;;;;;;;;;4994921;28;20200;-80
2024/01/21 08:37:11;;;;;;;20.63;10.60;;;;;;;;;;4994321;28;20259;-80
2024/01/21 08:39:38;;;;;;;25.53;13.03;;;;;;;;;;4994758;28;20205;-81
2024/01/21 08:42:07;;;;;;;24.17;12.90;;;;;;;;;;4993821;28;20718;-80
2024/01/21 08:44:34;;;;;;;17.53;10.63;;;;;;;;;;5008330;28;20706;-82
2024/01/21 08:47:02;;;;;;;19.13;10.10;;;;;;;;;;5013625;28;20301;-81
2024/01/21 08:49:29;;;;;;;21.90;11.03;;;;;;;;;;5013633;28;20216;-79
2024/01/21 08:51:56;;;;;;;24.43;12.60;;;;;;;;;;5012619;28;20239;-79
2024/01/21 08:54:23;;;;;;;18.23;12.87;;;;;;;;;;5013725;28;20693;-80
2024/01/21 08:56:51;;;;;;;24.07;13.97;;;;;;;;;;5013403;28;20237;-80
2024/01/21 08:59:19;;;;;;;27.13;14.27;;;;;;;;;;5013417;28;20207;-79
2024/01/21 09:01:46;;;;;;;20.00;12.37;;;;;;;;;;5013161;28;20243;-79
2024/01/21 09:04:15;;;;;;;18.10;12.10;;;;;;;;;;5013658;28;20675;-78
2024/01/21 09:06:42;;;;;;;23.50;11.90;;;;;;;;;;5013202;28;20290;-80
2024/01/21 09:09:11;;;;;;;18.77;11.80;;;;;;;;;;5013267;28;20200;-80
2024/01/21 09:11:38;;;;;;;21.63;11.40;;;;;;;;;;5013015;28;20318;-80
2024/01/21 09:14:05;;;;;;;18.00;10.57;;;;;;;;;;5013394;28;20218;-80
2024/01/21 09:16:34;;;;;;;23.47;12.03;;;;;;;;;;5013653;28;20242;-82
2024/01/21 09:19:01;;;;;;;27.60;14.57;;;;;;;;;;5014550;28;20214;-84
2024/01/21 09:21:28;;;;;;;24.03;13.03;;;;;;;;;;5013305;28;20249;-81
2024/01/21 09:23:56;;;;;;;16.63;10.57;;;;;;;;;;5013319;28;20314;-84
2024/01/21 09:26:23;;;;;;;26.07;12.67;;;;;;;;;;5012431;28;20567;-81
2024/01/21 09:28:50;;;;;;;21.13;11.27;;;;;;;;;;5013033;28;20192;-80
2024/01/21 09:31:17;;;;;;;17.07;11.97;;;;;;;;;;5012770;28;20239;-81
2024/01/21 09:33:45;;;;;;;15.73;11.23;;;;;;;;;;5013467;28;20195;-81
2024/01/21 09:36:14;;;;;;;13.50;9.70;;;;;;;;;;5012702;28;20239;-82
2024/01/21 09:38:41;;;;;;;20.50;13.57;;;;;;;;;;5012794;28;20235;-83
2024/01/21 09:41:10;;;;;;;17.33;12.67;;;;;;;;;;5012666;28;20242;-83
2024/01/21 09:43:39;;;;;;;23.60;12.50;;;;;;;;;;5013208;28;20322;-83
2024/01/21 09:46:06;;;;;;;20.00;10.33;;;;;;;;;;5012453;28;20235;-82
2024/01/21 09:48:33;;;;;;;17.30;12.53;;;;;;;;;;5013186;28;20210;-81
2024/01/21 09:51:03;;;;;;;28.57;12.27;;;;;;;;;;5012473;28;20716;-82
2024/01/21 09:53:30;;;;;;;21.13;10.83;;;;;;;;;;5012864;28;20234;-82
2024/01/21 09:55:59;;;;;;;26.23;12.23;;;;;;;;;;5012450;28;20235;-80
2024/01/21 09:58:28;;;;;;;17.20;11.37;;;;;;;;;;5012635;28;20207;-84
2024/01/21 10:00:55;;;;;;;19.47;11.63;;;;;;;;;;5012361;28;20665;-83
2024/01/21 10:03:22;;;;;;;24.80;13.47;;;;;;;;;;5012808;28;20227;-83
2024/01/21 10:05:49;;;;;;;25.63;13.30;;;;;;;;;;5012462;28;20371;-83
2024/01/21 10:08:18;;;;;;;34.30;13.83;;;;;;;;;;5012323;28;20203;-83
2024/01/21 10:10:45;;;;;;;35.67;13.77;;;;;;;;;;5019011;28;20258;-83
2024/01/21 10:13:12;;;;;;;20.67;12.40;;;;;;;;;;5013777;28;20214;-83
2024/01/21 10:15:39;;;;;;;26.43;15.80;;;;;;;;;;5013315;28;20258;-83
2024/01/21 10:18:06;;;;;;;23.90;13.60;;;;;;;;;;5013200;28;20670;-84
2024/01/21 10:20:34;;;;;;;34.93;15.60;;;;;;;;;;5012370;28;20239;-82
2024/01/21 10:23:10;;;;;;;30.47;14.87;;;;;;;;;;5012453;28;20285;-82
2024/01/21 10:25:40;;;;;;;28.40;14.97;;;;;;;;;;5011904;28;20314;-82
2024/01/21 10:28:07;;;;;;;29.90;14.47;;;;;;;;;;5012008;28;20208;-81
2024/01/21 10:30:34;;;;;;;29.57;13.67;;;;;;;;;;5011227;28;20706;-80
2024/01/21 10:33:01;;;;;;;20.80;13.60;;;;;;;;;;5012435;28;20208;-82
2024/01/21 10:35:28;;;;;;;25.97;14.37;;;;;;;;;;5011486;28;20244;-81
2024/01/21 10:37:56;;;;;;;25.37;13.83;;;;;;;;;;5011978;28;20219;-81
2024/01/21 10:40:24;;;;;;;21.93;12.10;;;;;;;;;;5011602;28;20235;-81
2024/01/21 10:42:57;;;;;;;28.23;14.87;;;;;;;;;;5012321;28;20211;-81
2024/01/21 10:45:25;;;;;;;22.37;14.50;;;;;;;;;;5011379;28;20628;-81
2024/01/21 10:47:53;;;;;;;28.17;14.53;;;;;;;;;;5011712;28;20199;-81
2024/01/21 10:50:21;;;;;;;34.80;13.10;;;;;;;;;;5005788;28;20224;-82
2024/01/21 10:52:49;;;;;;;29.77;12.20;;;;;;;;;;5007316;28;20694;-83
2024/01/21 10:55:16;;;;;;;26.63;13.67;;;;;;;;;;5011185;28;20212;-82
2024/01/21 10:57:47;;;;;;;29.33;14.23;;;;;;;;;;5011448;28;20224;-82
2024/01/21 11:00:16;;;;;;;24.53;11.80;;;;;;;;;;5010431;28;20207;-81
2024/01/21 11:03:04;;;;;;;20.37;11.37;;;;;;;;;;5010722;28;20209;-81
2024/01/21 11:05:31;;;;;;;20.80;13.13;;;;;;;;;;5010300;28;20243;-82
2024/01/21 11:08:01;;;;;;;23.97;11.20;;;;;;;;;;5010692;28;20216;-81
2024/01/21 11:10:28;;;;;;;23.40;13.40;;;;;;;;;;5010296;28;20240;-81
2024/01/21 11:12:57;;;;;;;13.20;8.63;;;;;;;;;;5010933;28;20208;-82
2024/01/21 11:15:30;;;;;;;19.63;11.40;;;;;;;;;;5012310;28;20235;-82
2024/01/21 11:18:11;;;;;;;31.90;14.43;;;;;;;;;;5014919;28;20236;-82
2024/01/21 11:20:40;;;;;;;29.20;12.87;;;;;;;;;;5015048;28;20237;-82
2024/01/21 11:23:15;;;;;;;37.87;14.57;;;;;;;;;;5014836;28;20207;-81
2024/01/21 11:25:53;;;;;;;2.87;2.77;;;;;;;;;;5013742;28;20250;-82
2024/01/21 11:28:27;;;;;;;22.33;10.40;;;;;;;;;;5014517;28;20208;-82
2024/01/21 11:31:03;;;;;;;20.17;10.10;;;;;;;;;;5014392;28;20323;-82
2024/01/21 11:33:31;;;;;;;15.77;8.73;;;;;;;;;;5014439;28;20214;-81
2024/01/21 11:35:59;;;;;;;4.70;4.23;;;;;;;;;;5014261;28;20240;-82
2024/01/21 11:38:26;;;;;;;23.43;12.07;;;;;;;;;;5014302;28;20219;-83
2024/01/21 11:41:10;;;;;;;23.83;13.57;;;;;;;;;;5014052;28;20249;-82
2024/01/21 11:43:37;;;;;;;27.87;12.77;;;;;;;;;;5014235;28;20617;-83
2024/01/21 11:46:06;;;;;;;21.37;12.77;;;;;;;;;;5014504;28;20270;-83
2024/01/21 11:48:34;;;;;;;24.10;14.60;;;;;;;;;;5014405;28;20254;-82
2024/01/21 11:51:02;;;;;;;25.20;13.97;;;;;;;;;;5013030;28;20265;-82
2024/01/21 11:53:29;;;;;;;29.20;14.57;;;;;;;;;;5013472;28;20221;-84
2024/01/21 11:55:56;;;;;;;27.07;13.93;;;;;;;;;;5014126;28;20237;-83
2024/01/21 11:58:23;;;;;;;35.10;17.77;;;;;;;;;;5013856;28;20210;-83
2024/01/21 12:00:50;;;;;;;39.57;16.37;;;;;;;;;;5013459;28;20704;-83
2024/01/21 12:03:19;;;;;;;27.73;16.37;;;;;;;;;;5013922;28;20204;-81
2024/01/21 12:05:46;;;;;;;31.50;14.00;;;;;;;;;;5013696;28;20237;-82
2024/01/21 12:08:13;;;;;;;26.00;13.60;;;;;;;;;;5013936;28;20203;-82
2024/01/21 12:10:40;;;;;;;27.60;14.73;;;;;;;;;;5013235;28;20242;-82
2024/01/21 12:13:08;;;;;;;27.97;13.70;;;;;;;;;;5013835;28;20609;-82
2024/01/21 12:15:36;;;;;;;26.80;15.20;;;;;;;;;;5013219;28;20235;-82
2024/01/21 12:18:03;;;;;;;22.27;11.90;;;;;;;;;;5013772;28;20828;-82
2024/01/21 12:20:31;;;;;;;27.97;14.43;;;;;;;;;;5012958;28;20712;-82
2024/01/21 12:22:58;;;;;;;31.27;14.73;;;;;;;;;;5012825;28;20660;-82
2024/01/21 12:25:25;;;;;;;27.60;13.43;;;;;;;;;;5012720;28;20247;-82
2024/01/21 12:27:56;;;;;;;29.70;13.03;;;;;;;;;;5011645;28;20199;-82
2024/01/21 12:30:25;;;;;;;33.67;17.20;;;;;;;;;;5012840;28;20254;-82
2024/01/21 12:32:52;;;;;;;36.00;13.73;;;;;;;;;;5012903;28;20673;-82
2024/01/21 12:35:19;;;;;;;26.17;12.67;;;;;;;;;;5013338;28;20211;-82
2024/01/21 12:37:48;;;;;;;34.70;15.13;;;;;;;;;;5012865;28;20280;-82
2024/01/21 12:40:15;;;;;;;30.83;17.30;;;;;;;;;;5012844;28;20247;-82
2024/01/21 12:42:42;;;;;;;35.00;17.37;;;;;;;;;;5012712;28;20227;-83
2024/01/21 12:45:10;;;;;;;30.83;15.97;;;;;;;;;;5012832;28;20279;-81
2024/01/21 12:47:38;;;;;;;33.63;16.97;;;;;;;;;;5012995;28;20203;-82
2024/01/21 12:50:05;;;;;;;46.00;17.33;;;;;;;;;;5012926;28;20219;-81
2024/01/21 12:52:33;;;;;;;36.67;19.57;;;;;;;;;;5012755;28;20200;-82
2024/01/21 12:55:01;;;;;;;34.00;18.20;;;;;;;;;;5005394;28;20858;-82
2024/01/21 12:57:28;;;;;;;23.10;15.33;;;;;;;;;;5011895;28;20698;-82
2024/01/21 12:59:56;;;;;;;30.13;15.53;;;;;;;;;;5012530;28;20212;-82
2024/01/21 13:02:23;;;;;;;29.33;16.33;;;;;;;;;;5012653;28;20246;-82
2024/01/21 13:04:50;;;;;;;35.27;16.47;;;;;;;;;;5012815;28;20314;-83
2024/01/21 13:07:17;;;;;;;30.03;16.37;;;;;;;;;;5012073;28;20301;-82
2024/01/21 13:09:44;;;;;;;31.60;15.67;;;;;;;;;;5011896;28;20212;-83
2024/01/21 13:12:13;;;;;;;30.33;15.53;;;;;;;;;;5014240;28;20238;-82
2024/01/21 13:14:40;;;;;;;25.67;16.07;;;;;;;;;;5017791;28;20207;-81
2024/01/21 13:17:07;;;;;;;27.00;16.83;;;;;;;;;;5011858;28;20247;-84
2024/01/21 13:19:34;;;;;;;31.80;16.00;;;;;;;;;;5012309;28;20203;-81
2024/01/21 13:22:06;;;;;;;29.90;16.00;;;;;;;;;;5004177;28;20243;-82
2024/01/21 13:24:33;;;;;;;31.37;17.90;;;;;;;;;;5007613;28;20232;-81
2024/01/21 13:27:07;;;;;;;26.60;15.90;;;;;;;;;;5012147;28;20241;-85
2024/01/21 13:32:21;;;;;;;36.77;17.83;;;;;;;;;;5010798;28;20356;-84
2024/01/21 13:34:48;;;;;;;32.10;16.73;;;;;;;;;;5012420;28;20298;-87
2024/01/21 13:37:15;;;;;;;25.43;14.27;;;;;;;;;;5010068;28;20695;-83
2024/01/21 13:39:43;;;;;;;43.10;19.70;;;;;;;;;;5011878;28;20220;-82
2024/01/21 13:42:10;;;;;;;42.03;19.70;;;;;;;;;;5011865;28;20660;-82
2024/01/21 13:44:38;;;;;;;38.23;20.17;;;;;;;;;;5011987;28;20228;-83
2024/01/21 13:47:05;;;;;;;40.97;21.80;;;;;;;;;;5003797;28;20244;-82
2024/01/21 13:49:32;;;;;;;42.80;21.73;;;;;;;;;;5011869;28;20725;-82
2024/01/21 13:52:01;;;;;;;34.70;20.23;;;;;;;;;;5011275;28;20241;-82
2024/01/21 13:54:28;;;;;;;32.47;19.80;;;;;;;;;;5012168;28;20203;-83
2024/01/21 13:56:56;;;;;;;31.90;18.33;;;;;;;;;;5011133;28;20239;-82
2024/01/21 13:59:38;;;;;;;;;;;;;;;;;;;;;
2024/01/21 14:02:09;;;;;;;40.57;21.23;;;;;;;;;;5011393;28;20240;-82
2024/01/21 14:04:36;;;;;;;35.73;21.00;;;;;;;;;;5012276;28;20669;-82
2024/01/21 14:07:03;;;;;;;39.33;19.13;;;;;;;;;;5003366;28;20237;-82
2024/01/21 14:09:30;;;;;;;38.00;19.97;;;;;;;;;;5011368;28;20305;-81
2024/01/21 14:11:58;;;;;;;39.00;20.10;;;;;;;;;;5011309;28;20242;-82
2024/01/21 14:14:25;;;;;;;30.27;17.23;;;;;;;;;;5011903;28;20203;-82
2024/01/21 14:16:52;;;;;;;40.37;17.20;;;;;;;;;;5007156;28;20656;-82
2024/01/21 14:19:20;;;;;;;28.50;16.43;;;;;;;;;;5010697;28;20205;-82
2024/01/21 14:21:48;;;;;;;33.73;16.67;;;;;;;;;;5010448;28;20611;-83
2024/01/21 14:24:15;;;;;;;31.00;17.17;;;;;;;;;;5011126;28;20209;-82